Time;durP1;ratioP1;P1;durP2;ratioP2;P2;SDS_P1;SDS_P2;PMS_P1;PMS_P2;Temp;Humidity;BMP_temperature;BMP_pressure;BME280_temperature;BME280_humidity;BME280_pressure;Samples;Min_cycle;Max_cycle;Signal;HPM_P1;HPM_P2
2022/09/12 00:00:48;;;;;;;2.03;1.60;;;21.50;93.00;;;;;;5052693;28;20024;-23
2022/09/12 00:03:14;;;;;;;3.17;1.60;;;21.50;92.90;;;;;;5052702;28;20433;-23
2022/09/12 00:05:45;;;;;;;3.05;1.60;;;21.50;93.00;;;;;;5052634;28;20494;-23
2022/09/12 00:08:12;;;;;;;1.60;1.50;;;21.50;93.00;;;;;;5052611;28;20017;-23
2022/09/12 00:10:42;;;;;;;1.88;1.50;;;21.50;93.00;;;;;;5035099;28;20120;-23
2022/09/12 00:13:08;;;;;;;4.07;1.55;;;21.50;93.00;;;;;;5052451;28;20083;-23
2022/09/12 00:15:41;;;;;;;1.85;1.70;;;21.40;92.90;;;;;;5052465;28;20033;-23
2022/09/12 00:18:14;;;;;;;2.03;1.80;;;21.50;92.90;;;;;;5052337;28;20021;-23
2022/09/12 00:20:42;;;;;;;2.08;1.70;;;21.50;92.90;;;;;;5052342;28;20108;-23
2022/09/12 00:23:07;;;;;;;2.30;1.67;;;21.40;92.90;;;;;;5052420;28;20055;-23
2022/09/12 00:25:33;;;;;;;3.40;1.75;;;21.40;92.90;;;;;;5034387;28;20037;-23
2022/09/12 00:27:59;;;;;;;2.15;1.60;;;21.40;92.80;;;;;;5052228;28;20513;-23
2022/09/12 00:30:24;;;;;;;1.95;1.75;;;21.40;92.80;;;;;;5052115;28;20059;-23
2022/09/12 00:32:50;;;;;;;1.75;1.65;;;21.40;92.80;;;;;;5052412;28;20049;-23
2022/09/12 00:35:16;;;;;;;2.10;1.90;;;21.40;92.80;;;;;;5052452;28;20021;-23
2022/09/12 00:37:41;;;;;;;1.80;1.70;;;21.40;92.80;;;;;;5052314;28;20032;-23
2022/09/12 00:40:07;;;;;;;2.10;1.90;;;21.40;92.80;;;;;;5052197;28;20112;-23
2022/09/12 00:42:33;;;;;;;2.22;1.70;;;21.40;92.80;;;;;;5052132;28;20025;-23
2022/09/12 00:44:58;;;;;;;1.70;1.60;;;21.40;92.80;;;;;;5052086;28;20094;-23
2022/09/12 00:47:28;;;;;;;2.25;1.80;;;21.40;92.80;;;;;;5051979;28;20384;-23
2022/09/12 00:50:06;;;;;;;1.70;1.60;;;21.40;92.80;;;;;;5051849;28;20033;-23
2022/09/12 00:52:38;;;;;;;1.92;1.77;;;21.40;92.70;;;;;;5052091;28;20071;-23
2022/09/12 00:55:14;;;;;;;2.97;1.80;;;21.40;92.70;;;;;;5052021;28;20035;-23
2022/09/12 00:57:48;;;;;;;2.10;1.67;;;21.40;92.70;;;;;;5052276;28;20028;-23
2022/09/12 01:00:17;;;;;;;1.80;1.60;;;21.40;92.70;;;;;;5051809;28;20028;-22
2022/09/12 01:02:47;;;;;;;1.98;1.63;;;21.40;92.70;;;;;;5051899;28;20028;-23
2022/09/12 01:05:14;;;;;;;2.55;1.73;;;21.40;92.70;;;;;;5051912;28;20048;-23
2022/09/12 01:07:40;;;;;;;2.00;1.80;;;21.30;92.70;;;;;;5051836;28;20092;-23
2022/09/12 01:10:08;;;;;;;2.55;1.80;;;21.30;92.70;;;;;;5051589;28;20029;-23
2022/09/12 01:12:36;;;;;;;3.38;1.95;;;21.30;92.70;;;;;;5052005;28;20057;-23
2022/09/12 01:15:02;;;;;;;2.53;1.73;;;21.30;92.70;;;;;;5052290;28;20115;-23
2022/09/12 01:17:40;;;;;;;2.75;1.55;;;21.30;92.70;;;;;;5053364;28;20064;-24
2022/09/12 01:20:33;;;;;;;2.08;1.85;;;21.30;92.70;;;;;;5055180;28;20025;-23
2022/09/12 01:23:34;;;;;;;2.25;1.80;;;21.30;92.70;;;;;;5053611;28;20028;-23
2022/09/12 01:26:14;;;;;;;2.10;1.90;;;21.30;92.70;;;;;;5042417;28;20041;-23
2022/09/12 01:29:08;;;;;;;1.75;1.55;;;21.30;92.70;;;;;;5055385;28;20017;-23
2022/09/12 01:32:06;;;;;;;2.28;2.08;;;21.30;92.70;;;;;;5052662;28;20044;-24
2022/09/12 01:34:45;;;;;;;1.98;1.75;;;21.30;92.70;;;;;;5009101;28;20037;-23
2022/09/12 01:37:22;;;;;;;1.70;1.60;;;21.30;92.70;;;;;;5055715;28;20105;-23
2022/09/12 01:40:02;;;;;;;1.90;1.80;;;21.30;92.70;;;;;;5055507;28;20044;-23
2022/09/12 01:42:47;;;;;;;2.17;1.38;;;21.30;92.60;;;;;;5055491;28;20020;-23
2022/09/12 01:45:21;;;;;;;1.90;1.70;;;21.30;92.60;;;;;;5055125;28;20029;-23
2022/09/12 01:47:56;;;;;;;3.13;2.22;;;21.30;92.60;;;;;;5055339;28;20113;-23
2022/09/12 01:50:28;;;;;;;2.58;1.60;;;21.30;92.60;;;;;;5055134;28;20024;-23
2022/09/12 01:53:15;;;;;;;2.97;2.00;;;21.30;92.60;;;;;;5055207;28;20032;-23
2022/09/12 01:55:43;;;;;;;2.20;1.70;;;21.30;92.60;;;;;;5055025;28;20029;-23
2022/09/12 01:58:15;;;;;;;2.70;1.83;;;21.20;92.60;;;;;;5055227;28;20032;-23
2022/09/12 02:00:54;;;;;;;1.85;1.73;;;21.20;92.60;;;;;;5054897;28;20502;-23
2022/09/12 02:03:25;;;;;;;5.40;1.70;;;21.20;92.60;;;;;;5037188;28;20040;-23
2022/09/12 02:05:58;;;;;;;4.43;1.67;;;21.20;92.60;;;;;;5055013;28;20107;-24
2022/09/12 02:08:30;;;;;;;4.80;1.90;;;21.20;92.50;;;;;;5054832;28;20025;-23
2022/09/12 02:11:09;;;;;;;1.73;1.50;;;21.20;92.90;;;;;;5054892;28;20027;-23
2022/09/12 02:13:55;;;;;;;1.77;1.60;;;21.20;92.60;;;;;;5054897;28;20390;-23
2022/09/12 02:16:37;;;;;;;7.03;2.10;;;21.20;92.50;;;;;;5054844;28;20059;-23
2022/09/12 02:19:12;;;;;;;4.95;2.50;;;21.20;92.60;;;;;;5054540;28;20530;-23
2022/09/12 02:21:41;;;;;;;2.75;1.98;;;21.20;92.50;;;;;;5054660;28;20498;-23
2022/09/12 02:24:08;;;;;;;7.55;1.92;;;21.20;92.50;;;;;;5054671;28;20033;-23
2022/09/12 02:26:56;;;;;;;7.50;2.13;;;21.20;92.50;;;;;;5054509;28;20044;-24
2022/09/12 02:29:22;;;;;;;2.60;1.83;;;21.20;92.50;;;;;;5054374;28;20051;-23
2022/09/12 02:31:56;;;;;;;2.58;1.83;;;21.20;92.50;;;;;;5054566;28;20021;-23
2022/09/12 02:34:38;;;;;;;6.72;2.00;;;21.10;92.40;;;;;;5054672;28;20474;-23
2022/09/12 02:37:27;;;;;;;4.05;1.70;;;21.10;92.40;;;;;;5054474;28;20027;-23
2022/09/12 02:39:55;;;;;;;3.60;2.08;;;21.10;92.40;;;;;;5054267;28;20052;-23
2022/09/12 02:42:22;;;;;;;2.33;1.75;;;21.10;92.40;;;;;;5054261;28;20474;-23
2022/09/12 02:44:48;;;;;;;3.00;1.90;;;21.10;92.40;;;;;;5054430;28;20021;-23
2022/09/12 02:47:21;;;;;;;8.80;1.70;;;21.10;92.40;;;;;;5054179;28;20102;-23
2022/09/12 02:49:47;;;;;;;2.22;1.60;;;21.10;92.40;;;;;;5053894;28;20359;-23
2022/09/12 02:52:14;;;;;;;3.53;1.80;;;21.10;92.40;;;;;;5054573;28;20075;-23
2022/09/12 02:54:40;;;;;;;4.97;1.80;;;21.10;92.40;;;;;;5036213;28;20051;-23
2022/09/12 02:57:16;;;;;;;4.40;1.92;;;21.10;92.40;;;;;;5054036;28;20131;-23
2022/09/12 02:59:41;;;;;;;2.75;1.77;;;21.10;92.70;;;;;;5053862;28;20021;-23
2022/09/12 03:02:10;;;;;;;4.10;1.83;;;21.10;92.40;;;;;;5053873;28;20393;-23
2022/09/12 03:04:47;;;;;;;1.98;1.50;;;21.10;92.40;;;;;;5053785;28;20044;-23
2022/09/12 03:07:25;;;;;;;4.10;1.95;;;21.10;92.40;;;;;;5053873;28;20017;-23
2022/09/12 03:10:36;;;;;;;3.38;1.52;;;21.00;92.30;;;;;;5053569;28;20033;-23
2022/09/12 03:13:19;;;;;;;1.90;1.60;;;21.10;92.30;;;;;;5053753;28;20067;-23
2022/09/12 03:16:09;;;;;;;5.30;1.63;;;21.10;92.30;;;;;;5053779;28;20029;-23
2022/09/12 03:19:05;;;;;;;4.03;1.92;;;21.10;92.30;;;;;;5053491;28;20382;-23
2022/09/12 03:21:45;;;;;;;3.22;1.75;;;21.10;92.20;;;;;;5053518;28;20115;-23
2022/09/12 03:24:18;;;;;;;2.08;1.55;;;21.10;92.20;;;;;;5053673;28;20020;-23
2022/09/12 03:27:05;;;;;;;2.30;1.77;;;21.10;92.20;;;;;;5053692;28;20113;-23
2022/09/12 03:29:31;;;;;;;1.98;1.58;;;21.10;92.20;;;;;;5053207;28;20021;-23
2022/09/12 03:31:57;;;;;;;2.72;1.75;;;21.00;92.20;;;;;;5053370;28;20035;-23
2022/09/12 03:34:26;;;;;;;2.70;1.67;;;21.00;92.20;;;;;;5053560;28;20065;-23
2022/09/12 03:36:54;;;;;;;3.80;1.60;;;21.00;92.20;;;;;;5053278;28;20049;-23
2022/09/12 03:39:20;;;;;;;1.70;1.50;;;21.00;92.20;;;;;;5053140;28;20553;-23
2022/09/12 03:41:46;;;;;;;1.73;1.58;;;21.00;92.20;;;;;;5052992;28;20017;-23
2022/09/12 03:44:11;;;;;;;1.65;1.40;;;21.10;92.10;;;;;;5053232;28;20386;-23
2022/09/12 03:46:37;;;;;;;1.95;1.48;;;21.00;92.10;;;;;;5052607;28;20021;-23
2022/09/12 03:49:03;;;;;;;3.53;1.70;;;21.00;92.10;;;;;;5052946;28;20498;-23
2022/09/12 03:51:29;;;;;;;3.33;1.80;;;21.00;92.40;;;;;;5052883;28;20025;-23
2022/09/12 03:53:55;;;;;;;3.08;1.60;;;21.00;92.10;;;;;;5052911;28;20508;-23
2022/09/12 03:56:21;;;;;;;3.80;1.67;;;21.00;92.10;;;;;;5052784;28;20033;-23
2022/09/12 03:58:46;;;;;;;3.35;1.60;;;21.00;92.10;;;;;;5052622;28;20100;-23
2022/09/12 04:01:17;;;;;;;1.75;1.50;;;21.00;92.00;;;;;;5034985;28;20102;-23
2022/09/12 04:03:45;;;;;;;1.40;1.30;;;21.00;92.00;;;;;;5052867;28;20040;-23
2022/09/12 04:06:13;;;;;;;2.83;1.80;;;21.00;92.00;;;;;;5052667;28;20063;-23
2022/09/12 04:08:39;;;;;;;1.38;1.25;;;21.00;92.00;;;;;;5052361;28;20525;-23
2022/09/12 04:11:07;;;;;;;1.77;1.60;;;21.00;92.00;;;;;;5052461;28;20075;-23
2022/09/12 04:13:35;;;;;;;1.95;1.38;;;21.00;92.00;;;;;;5052534;28;20029;-23
2022/09/12 04:16:00;;;;;;;2.05;1.40;;;21.00;92.00;;;;;;5052588;28;20055;-23
2022/09/12 04:18:26;;;;;;;2.10;1.58;;;21.00;92.00;;;;;;5052351;28;20428;-23
2022/09/12 04:20:52;;;;;;;2.35;1.67;;;21.00;92.00;;;;;;5052399;28;20056;-23
2022/09/12 04:23:18;;;;;;;2.05;1.63;;;21.00;92.00;;;;;;5052337;28;20083;-23
2022/09/12 04:25:51;;;;;;;2.17;1.25;;;20.90;91.90;;;;;;5052110;28;20021;-23
2022/09/12 04:28:17;;;;;;;1.63;1.45;;;20.90;91.90;;;;;;5052259;28;20497;-23
2022/09/12 04:30:42;;;;;;;1.98;1.58;;;20.90;91.90;;;;;;5052127;28;20025;-23
2022/09/12 04:33:08;;;;;;;1.48;1.20;;;20.90;91.90;;;;;;5052323;28;20079;-23
2022/09/12 04:35:34;;;;;;;3.92;1.42;;;20.90;92.00;;;;;;5052273;28;20498;-23
2022/09/12 04:38:00;;;;;;;2.45;1.60;;;20.90;91.90;;;;;;5052161;28;20028;-23
2022/09/12 04:40:28;;;;;;;1.30;1.20;;;20.90;92.00;;;;;;5051922;28;20036;-23
2022/09/12 04:42:54;;;;;;;1.95;1.30;;;20.90;91.90;;;;;;5052279;28;20033;-23
2022/09/12 04:45:21;;;;;;;4.28;1.73;;;20.90;91.90;;;;;;5034395;28;20031;-23
2022/09/12 04:47:46;;;;;;;1.40;1.25;;;20.80;91.90;;;;;;5052181;28;20103;-23
2022/09/12 04:50:13;;;;;;;3.70;1.63;;;20.80;91.90;;;;;;5051915;28;20072;-23
2022/09/12 04:52:40;;;;;;;1.70;1.60;;;20.80;91.90;;;;;;5052207;28;20470;-23
2022/09/12 04:55:06;;;;;;;1.40;1.30;;;20.80;91.90;;;;;;5054622;28;20059;-23
2022/09/12 04:57:32;;;;;;;3.30;1.20;;;20.80;91.90;;;;;;5056138;28;20029;-23
2022/09/12 04:59:58;;;;;;;1.70;1.38;;;20.80;91.90;;;;;;5051374;28;20021;-23
2022/09/12 05:02:24;;;;;;;2.38;1.50;;;20.80;91.90;;;;;;5052098;28;20040;-23
2022/09/12 05:04:51;;;;;;;1.48;1.38;;;20.80;91.90;;;;;;5052025;28;20033;-23
2022/09/12 05:07:18;;;;;;;2.30;1.40;;;20.80;91.90;;;;;;5051744;28;20013;-23
2022/09/12 05:09:44;;;;;;;2.35;1.50;;;20.80;91.90;;;;;;5051545;28;20029;-23
2022/09/12 05:12:10;;;;;;;2.88;1.30;;;20.80;91.80;;;;;;5052093;28;20049;-23
2022/09/12 05:14:36;;;;;;;1.63;1.52;;;20.80;91.80;;;;;;5051952;28;20542;-23
2022/09/12 05:17:03;;;;;;;2.30;1.60;;;20.80;91.80;;;;;;5051809;28;20021;-23
2022/09/12 05:19:29;;;;;;;2.42;1.58;;;20.80;91.80;;;;;;5051569;28;20021;-24
2022/09/12 05:21:55;;;;;;;1.42;1.33;;;20.80;91.80;;;;;;5051606;28;20021;-23
2022/09/12 05:24:21;;;;;;;1.83;1.50;;;20.80;91.80;;;;;;5051773;28;20021;-23
2022/09/12 05:26:46;;;;;;;1.30;1.20;;;20.70;91.80;;;;;;5051735;28;20025;-23
2022/09/12 05:29:12;;;;;;;3.35;1.30;;;20.70;91.90;;;;;;5051428;28;20099;-23
2022/09/12 05:31:38;;;;;;;3.55;1.27;;;20.80;91.90;;;;;;5051552;28;20022;-23
2022/09/12 05:34:05;;;;;;;1.48;1.20;;;20.70;91.80;;;;;;5033804;28;20107;-23
2022/09/12 05:36:32;;;;;;;1.50;1.23;;;20.70;91.80;;;;;;5051587;28;20096;-23
2022/09/12 05:38:59;;;;;;;1.60;1.50;;;20.70;91.80;;;;;;5051321;28;20028;-23
2022/09/12 05:41:28;;;;;;;1.67;1.33;;;20.70;91.80;;;;;;5051481;28;20490;-23
2022/09/12 05:43:59;;;;;;;1.38;1.23;;;20.70;91.80;;;;;;5051516;28;20032;-23
2022/09/12 05:46:27;;;;;;;2.47;1.50;;;20.70;91.80;;;;;;5051291;28;20029;-23
2022/09/12 05:48:54;;;;;;;1.80;1.30;;;20.70;91.80;;;;;;5051203;28;20475;-24
2022/09/12 05:51:32;;;;;;;1.85;1.38;;;20.70;91.80;;;;;;5051525;28;20079;-23
2022/09/12 05:54:00;;;;;;;1.67;1.42;;;20.60;91.80;;;;;;5051643;28;20021;-23
2022/09/12 05:56:32;;;;;;;1.58;1.30;;;20.60;91.80;;;;;;5051570;28;20025;-23
2022/09/12 05:59:00;;;;;;;2.03;1.50;;;20.60;91.80;;;;;;5051187;28;20025;-23
2022/09/12 06:01:27;;;;;;;1.55;1.30;;;20.60;91.80;;;;;;5051171;28;20131;-23
2022/09/12 06:03:56;;;;;;;1.58;1.20;;;20.60;91.80;;;;;;5051372;28;20020;-23
2022/09/12 06:06:23;;;;;;;1.50;1.20;;;20.60;91.80;;;;;;5051260;28;20106;-23
2022/09/12 06:08:51;;;;;;;2.08;1.33;;;20.60;91.80;;;;;;5050925;28;20037;-23
2022/09/12 06:11:19;;;;;;;2.08;1.33;;;20.60;91.80;;;;;;5070914;22;20037;-25
2022/09/12 06:13:46;;;;;;;1.90;1.30;;;20.60;91.80;;;;;;5035024;28;20476;-26
2022/09/12 06:16:17;;;;;;;3.17;1.40;;;20.60;91.80;;;;;;5034936;28;20036;-25
2022/09/12 06:18:50;;;;;;;1.92;1.10;;;20.60;91.80;;;;;;5034812;28;20393;-24
2022/09/12 06:21:16;;;;;;;1.50;1.20;;;20.60;91.80;;;;;;5034648;28;20502;-26
2022/09/12 06:23:43;;;;;;;2.42;1.50;;;20.70;91.80;;;;;;5034784;28;20038;-25
2022/09/12 06:26:10;;;;;;;3.17;1.55;;;20.70;91.80;;;;;;5034610;28;20482;-26
2022/09/12 06:28:37;;;;;;;2.45;1.80;;;20.70;91.80;;;;;;5034617;28;20552;-26
2022/09/12 06:31:09;;;;;;;1.40;1.30;;;20.70;91.80;;;;;;5034603;28;20022;-25
2022/09/12 06:33:36;;;;;;;1.80;1.50;;;20.70;91.80;;;;;;5034486;28;20028;-24
2022/09/12 06:36:08;;;;;;;1.48;1.33;;;20.70;91.80;;;;;;5034684;28;20069;-25
2022/09/12 06:38:34;;;;;;;1.77;1.20;;;20.70;91.80;;;;;;5034366;28;20033;-25
2022/09/12 06:41:03;;;;;;;1.60;1.40;;;20.70;91.80;;;;;;5034287;28;20398;-26
2022/09/12 06:43:29;;;;;;;1.17;1.02;;;20.70;91.80;;;;;;5034794;28;20059;-25
2022/09/12 06:45:55;;;;;;;2.17;1.30;;;20.70;91.80;;;;;;5034372;28;20391;-25
2022/09/12 06:48:21;;;;;;;2.88;1.38;;;20.70;91.90;;;;;;5034156;28;20052;-24
2022/09/12 06:51:01;;;;;;;2.10;1.40;;;20.70;91.90;;;;;;5034007;28;20382;-24
2022/09/12 06:53:28;;;;;;;1.58;1.40;;;20.70;91.80;;;;;;5034250;28;20032;-24
2022/09/12 06:55:56;;;;;;;3.28;1.38;;;20.70;91.90;;;;;;5034459;28;20026;-25
2022/09/12 06:58:22;;;;;;;2.53;2.28;;;20.80;91.90;;;;;;5034082;28;20387;-25
2022/09/12 07:00:47;;;;;;;3.40;2.40;;;20.70;91.40;;;;;;5033747;28;20026;-25
2022/09/12 07:03:13;;;;;;;2.30;2.10;;;20.40;90.90;;;;;;5034049;28;20039;-26
2022/09/12 07:05:39;;;;;;;3.55;1.70;;;20.30;91.20;;;;;;5033894;28;20036;-25
2022/09/12 07:08:04;;;;;;;2.80;1.77;;;20.30;91.40;;;;;;5033897;28;20072;-25
2022/09/12 07:10:30;;;;;;;2.53;1.90;;;20.40;91.50;;;;;;5033654;28;20060;-26
2022/09/12 07:12:56;;;;;;;2.03;1.67;;;20.50;91.40;;;;;;5033877;28;20104;-25
2022/09/12 07:15:21;;;;;;;4.90;1.70;;;20.50;91.40;;;;;;5033693;28;20025;-25
2022/09/12 07:17:47;;;;;;;3.05;1.50;;;20.60;91.30;;;;;;5033767;28;20033;-26
2022/09/12 07:20:12;;;;;;;2.55;1.63;;;20.70;91.30;;;;;;5033836;28;20032;-25
2022/09/12 07:22:38;;;;;;;2.85;1.80;;;20.70;91.20;;;;;;5032686;28;20368;-26
2022/09/12 07:25:04;;;;;;;1.92;1.67;;;20.80;91.20;;;;;;5033620;28;20029;-25
2022/09/12 07:27:29;;;;;;;2.95;1.50;;;20.80;91.20;;;;;;5033563;28;20024;-25
2022/09/12 07:29:55;;;;;;;3.88;1.70;;;20.80;91.20;;;;;;5038798;28;20029;-25
2022/09/12 07:32:21;;;;;;;2.78;1.40;;;20.90;91.20;;;;;;5033377;28;20467;-25
2022/09/12 07:34:48;;;;;;;1.67;1.50;;;20.90;91.20;;;;;;5033460;28;20409;-25
2022/09/12 07:37:14;;;;;;;1.50;1.40;;;20.90;91.10;;;;;;5033370;28;20022;-25
2022/09/12 07:39:40;;;;;;;2.13;1.45;;;21.00;91.20;;;;;;5033236;28;20026;-24
2022/09/12 07:42:05;;;;;;;2.42;1.90;;;21.00;91.20;;;;;;5033123;28;20060;-26
2022/09/12 07:44:31;;;;;;;2.55;1.55;;;21.10;91.20;;;;;;5033080;28;20096;-25
2022/09/12 07:46:57;;;;;;;1.83;1.40;;;21.10;91.20;;;;;;5033223;28;20068;-25
2022/09/12 07:49:23;;;;;;;1.60;1.35;;;21.10;91.10;;;;;;5033054;28;20032;-25
2022/09/12 07:51:48;;;;;;;2.85;1.50;;;21.10;91.10;;;;;;5033012;28;20214;-25
2022/09/12 07:54:14;;;;;;;2.13;1.40;;;21.10;91.20;;;;;;5033122;28;20025;-25
2022/09/12 07:56:40;;;;;;;2.22;1.40;;;21.20;91.20;;;;;;5033065;28;20029;-25
2022/09/12 07:59:09;;;;;;;1.50;1.40;;;21.20;91.20;;;;;;5032692;28;20021;-25
2022/09/12 08:01:35;;;;;;;2.63;1.50;;;21.20;91.20;;;;;;5032817;28;20108;-24
2022/09/12 08:04:00;;;;;;;1.70;1.38;;;21.20;91.20;;;;;;5032915;28;20106;-24
2022/09/12 08:06:30;;;;;;;2.60;1.50;;;21.20;91.20;;;;;;5032903;28;20029;-25
2022/09/12 08:08:57;;;;;;;2.72;1.55;;;21.20;91.30;;;;;;5032728;28;20063;-25
2022/09/12 08:11:24;;;;;;;1.85;1.33;;;21.20;91.20;;;;;;5032761;28;20482;-26
2022/09/12 08:13:53;;;;;;;2.03;1.42;;;21.20;91.30;;;;;;5032682;28;20026;-24
2022/09/12 08:16:21;;;;;;;1.90;1.35;;;21.30;91.30;;;;;;5032707;28;20386;-25
2022/09/12 08:18:48;;;;;;;2.42;1.20;;;21.30;91.30;;;;;;5032459;28;20103;-26
2022/09/12 08:21:15;;;;;;;3.10;1.30;;;21.30;91.30;;;;;;5032432;28;20026;-25
2022/09/12 08:23:42;;;;;;;1.25;1.00;;;21.30;91.60;;;;;;5032591;28;20022;-25
2022/09/12 08:26:09;;;;;;;1.60;1.38;;;21.30;91.30;;;;;;5032359;28;20025;-26
2022/09/12 08:28:36;;;;;;;1.80;1.38;;;21.40;91.30;;;;;;5032806;28;20021;-25
2022/09/12 08:31:04;;;;;;;1.45;1.27;;;21.40;91.60;;;;;;5014794;28;20021;-25
2022/09/12 08:33:33;;;;;;;2.33;1.60;;;21.40;91.20;;;;;;5032289;28;20079;-25
2022/09/12 08:36:20;;;;;;;1.35;1.25;;;21.40;91.30;;;;;;5032324;28;20098;-25
2022/09/12 08:38:49;;;;;;;1.55;1.20;;;21.40;91.30;;;;;;5032055;28;20033;-25
2022/09/12 08:41:17;;;;;;;2.40;1.38;;;21.40;91.30;;;;;;5032209;28;20029;-25
2022/09/12 08:43:52;;;;;;;2.10;1.30;;;21.40;91.30;;;;;;5032357;28;20044;-25
2022/09/12 08:46:33;;;;;;;1.55;1.20;;;21.40;91.30;;;;;;5032275;28;20108;-25
2022/09/12 08:49:01;;;;;;;1.25;1.15;;;21.50;91.30;;;;;;5031912;28;20022;-25
2022/09/12 08:51:29;;;;;;;3.58;1.80;;;21.50;91.30;;;;;;5031878;28;20026;-25
2022/09/12 08:53:56;;;;;;;4.32;1.70;;;21.40;91.60;;;;;;5032177;28;20026;-25
2022/09/12 08:56:23;;;;;;;5.50;1.50;;;21.30;91.90;;;;;;5032031;28;20508;-25
2022/09/12 08:58:48;;;;;;;2.28;1.70;;;21.30;91.90;;;;;;5031910;28;20498;-25
2022/09/12 09:01:31;;;;;;;3.67;1.50;;;21.40;91.90;;;;;;5031853;28;20033;-25
2022/09/12 09:04:26;;;;;;;2.40;1.50;;;21.50;91.80;;;;;;5032001;28;20033;-24
2022/09/12 09:06:55;;;;;;;2.70;1.50;;;21.60;91.60;;;;;;5031838;28;20022;-24
2022/09/12 09:09:32;;;;;;;3.17;1.50;;;21.70;91.60;;;;;;5031794;28;20109;-24
2022/09/12 09:12:27;;;;;;;1.48;1.38;;;21.70;91.50;;;;;;5031503;28;20040;-24
2022/09/12 09:15:23;;;;;;;1.90;1.30;;;21.80;91.50;;;;;;5031935;28;20049;-25
2022/09/12 09:18:30;;;;;;;1.58;1.45;;;21.80;91.80;;;;;;5031881;28;20067;-25
2022/09/12 09:21:05;;;;;;;2.20;1.40;;;21.90;91.50;;;;;;4951302;29;20031;-24
2022/09/12 09:23:34;;;;;;;;;;;21.90;91.40;;;;;;4952010;29;20118;-25
2022/09/12 09:26:26;;;;;;;1.90;1.38;;;21.90;91.40;;;;;;4997049;28;19909;-25
2022/09/12 09:29:01;;;;;;;1.95;1.40;;;21.90;91.40;;;;;;5031636;28;20037;-25
2022/09/12 09:31:36;;;;;;;2.42;1.25;;;21.90;91.40;;;;;;5031596;28;20498;-26
2022/09/12 09:34:14;;;;;;;1.08;0.93;;;22.00;91.30;;;;;;5031701;28;20044;-25
2022/09/12 09:36:50;;;;;;;1.80;1.25;;;22.10;91.30;;;;;;5031642;28;20107;-26
2022/09/12 09:39:30;;;;;;;1.88;1.25;;;22.10;91.20;;;;;;5031476;28;20021;-25
2022/09/12 09:42:15;;;;;;;1.90;1.30;;;22.20;91.20;;;;;;5031518;28;20486;-25
2022/09/12 09:44:42;;;;;;;1.20;1.10;;;22.20;91.20;;;;;;5032679;28;20025;-25
2022/09/12 09:47:11;;;;;;;1.25;1.15;;;22.20;91.20;;;;;;5035546;28;20507;-25
2022/09/12 09:49:37;;;;;;;1.42;1.13;;;22.20;91.20;;;;;;5035230;28;20040;-25
2022/09/12 09:52:06;;;;;;;1.20;1.10;;;22.20;91.20;;;;;;5035418;28;20018;-26
2022/09/12 09:54:48;;;;;;;1.25;1.10;;;22.20;91.20;;;;;;5035562;28;20033;-24
2022/09/12 09:57:32;;;;;;;2.58;0.95;;;22.20;91.20;;;;;;5035305;28;20087;-25
2022/09/12 09:59:58;;;;;;;1.20;0.95;;;22.30;91.20;;;;;;5034889;28;20504;-25
2022/09/12 10:02:25;;;;;;;1.27;1.00;;;22.30;91.20;;;;;;5035138;28;20053;-27
2022/09/12 10:04:57;;;;;;;1.63;0.95;;;22.30;91.20;;;;;;5035097;28;20018;-25
2022/09/12 10:07:25;;;;;;;1.10;1.00;;;22.40;91.20;;;;;;5035051;28;20025;-25
2022/09/12 10:10:15;;;;;;;1.08;0.98;;;22.40;91.20;;;;;;5034909;28;20537;-24
2022/09/12 10:12:41;;;;;;;1.10;1.00;;;22.40;91.10;;;;;;5034857;28;20106;-25
2022/09/12 10:15:20;;;;;;;1.83;1.05;;;22.40;91.10;;;;;;5034935;28;20036;-25
2022/09/12 10:17:48;;;;;;;2.22;1.10;;;22.40;91.10;;;;;;5034916;28;20033;-24
2022/09/12 10:20:32;;;;;;;4.63;1.20;;;22.50;91.10;;;;;;5034677;28;20030;-25
2022/09/12 10:23:18;;;;;;;1.48;0.80;;;22.50;91.10;;;;;;5035278;28;20026;-25
2022/09/12 10:26:08;;;;;;;1.20;1.00;;;22.50;91.00;;;;;;5034185;28;20053;-26
2022/09/12 10:28:49;;;;;;;3.75;1.00;;;22.60;91.00;;;;;;5040196;28;20048;-25
2022/09/12 10:31:27;;;;;;;1.83;1.00;;;22.60;91.00;;;;;;5034450;28;20029;-25
2022/09/12 10:33:58;;;;;;;1.10;1.00;;;22.60;91.00;;;;;;5034644;28;20026;-25
2022/09/12 10:36:25;;;;;;;1.20;0.85;;;22.60;91.00;;;;;;5034645;28;20442;-25
2022/09/12 10:38:57;;;;;;;1.33;1.00;;;22.60;90.90;;;;;;5034475;28;20018;-25
2022/09/12 10:41:23;;;;;;;1.27;0.90;;;22.60;91.00;;;;;;5034235;28;20479;-24
2022/09/12 10:43:49;;;;;;;1.20;0.80;;;22.60;90.90;;;;;;5034468;28;20049;-24
2022/09/12 10:46:18;;;;;;;1.75;1.05;;;22.70;90.90;;;;;;5034356;28;20082;-25
2022/09/12 10:48:48;;;;;;;1.20;0.80;;;22.70;90.90;;;;;;5034200;28;20474;-24
2022/09/12 10:51:23;;;;;;;1.63;1.00;;;22.70;90.90;;;;;;5034159;28;20486;-25
2022/09/12 10:53:50;;;;;;;1.60;0.98;;;22.70;90.90;;;;;;5034238;28;20029;-26
2022/09/12 10:56:19;;;;;;;1.10;0.82;;;22.70;90.80;;;;;;5032831;28;20107;-25
2022/09/12 10:59:06;;;;;;;1.52;1.00;;;22.70;90.80;;;;;;5034020;28;20509;-25
2022/09/12 11:01:32;;;;;;;1.20;0.90;;;22.70;90.80;;;;;;5040147;28;20030;-25
2022/09/12 11:04:06;;;;;;;1.15;0.90;;;22.80;90.80;;;;;;5035375;28;20025;-25
2022/09/12 11:07:13;;;;;;;1.10;0.80;;;22.80;90.70;;;;;;5033856;28;20025;-25
2022/09/12 11:09:57;;;;;;;0.95;0.85;;;22.80;90.60;;;;;;5031781;28;20057;-25
2022/09/12 11:12:23;;;;;;;1.40;0.90;;;22.90;90.70;;;;;;5033790;28;20040;-24
2022/09/12 11:15:21;;;;;;;0.98;0.90;;;22.80;90.70;;;;;;5033744;28;20022;-25
2022/09/12 11:18:19;;;;;;;1.48;0.88;;;22.90;90.70;;;;;;5033807;28;20028;-26
2022/09/12 11:20:53;;;;;;;0.90;0.80;;;22.90;90.70;;;;;;5033341;28;20096;-25
2022/09/12 11:23:43;;;;;;;1.35;1.00;;;22.90;90.70;;;;;;5033405;28;20123;-24
2022/09/12 11:26:21;;;;;;;2.22;1.15;;;22.90;90.60;;;;;;5033693;28;20057;-24
2022/09/12 11:29:11;;;;;;;0.90;0.80;;;22.90;90.60;;;;;;5033483;28;20013;-24
2022/09/12 11:32:08;;;;;;;1.85;0.95;;;23.00;90.60;;;;;;5033156;28;20029;-25
2022/09/12 11:35:02;;;;;;;1.02;0.90;;;23.00;90.60;;;;;;5033558;28;20502;-25
2022/09/12 11:37:27;;;;;;;1.10;0.80;;;23.00;90.60;;;;;;5033419;28;20033;-24
2022/09/12 11:39:55;;;;;;;1.30;1.02;;;23.00;90.60;;;;;;5032910;28;20021;-25
2022/09/12 11:42:29;;;;;;;0.70;0.70;;;23.00;90.50;;;;;;5033172;28;20540;-26
2022/09/12 11:45:16;;;;;;;1.52;0.90;;;23.00;90.50;;;;;;5033258;28;20018;-24
2022/09/12 11:47:47;;;;;;;1.00;0.90;;;23.00;90.40;;;;;;5033264;28;20049;-24
2022/09/12 11:50:25;;;;;;;0.90;0.80;;;23.00;90.40;;;;;;5032949;28;20021;-26
2022/09/12 11:52:53;;;;;;;1.00;0.90;;;23.00;90.40;;;;;;5033176;28;20021;-25
2022/09/12 11:55:31;;;;;;;1.40;0.70;;;23.10;90.50;;;;;;5033216;28;20018;-25
2022/09/12 11:57:57;;;;;;;1.00;0.80;;;23.10;90.40;;;;;;5033136;28;20028;-25
2022/09/12 12:00:53;;;;;;;1.30;0.88;;;23.00;90.40;;;;;;5032475;28;20082;-24
2022/09/12 12:03:42;;;;;;;0.95;0.73;;;23.10;90.30;;;;;;5032980;28;20079;-26
2022/09/12 12:06:21;;;;;;;1.23;0.80;;;23.10;90.30;;;;;;5032622;28;20022;-26
2022/09/12 12:08:49;;;;;;;1.73;0.80;;;23.10;90.40;;;;;;5032214;28;20424;-25
2022/09/12 12:11:43;;;;;;;1.10;0.90;;;23.10;90.30;;;;;;5032882;28;20087;-24
2022/09/12 12:14:18;;;;;;;1.73;0.80;;;23.10;90.30;;;;;;5033131;28;20018;-24
2022/09/12 12:16:45;;;;;;;0.98;0.88;;;23.10;90.30;;;;;;5032977;28;20021;-24
2022/09/12 12:19:13;;;;;;;1.45;0.90;;;23.10;90.50;;;;;;5032759;28;20108;-25
2022/09/12 12:21:46;;;;;;;1.17;0.90;;;23.10;90.20;;;;;;5032543;28;20462;-24
2022/09/12 12:24:11;;;;;;;0.85;0.73;;;23.20;90.20;;;;;;5033067;28;20386;-24
2022/09/12 12:26:51;;;;;;;1.23;0.73;;;23.20;90.10;;;;;;5032768;28;20032;-24
2022/09/12 12:29:16;;;;;;;5.55;0.93;;;23.20;87.00;;;;;;5032564;28;20475;-24
2022/09/12 12:32:03;;;;;;;2.70;0.70;;;23.20;84.20;;;;;;5032647;28;20028;-24
2022/09/12 12:34:38;;;;;;;1.58;1.00;;;23.20;85.40;;;;;;5032943;28;20017;-24
2022/09/12 12:37:22;;;;;;;3.83;0.90;;;23.30;86.00;;;;;;5014991;28;20076;-24
2022/09/12 12:39:52;;;;;;;1.75;0.80;;;23.30;86.50;;;;;;5032934;28;20053;-25
2022/09/12 12:42:33;;;;;;;2.75;0.70;;;23.30;86.70;;;;;;5032516;28;20037;-24
2022/09/12 12:45:08;;;;;;;1.13;0.90;;;23.30;86.90;;;;;;5032688;28;20502;-24
2022/09/12 12:48:10;;;;;;;1.33;0.70;;;23.30;87.20;;;;;;5032923;28;20017;-24
2022/09/12 12:50:36;;;;;;;1.00;0.60;;;23.30;87.40;;;;;;5018855;28;20076;-25
2022/09/12 12:53:17;;;;;;;0.80;0.70;;;23.30;87.60;;;;;;5032736;28;20069;-24
2022/09/12 12:55:43;;;;;;;1.38;0.80;;;23.30;87.80;;;;;;5032563;28;20022;-24
2022/09/12 12:58:33;;;;;;;1.00;0.70;;;23.30;87.80;;;;;;5032613;28;20383;-24
2022/09/12 13:01:15;;;;;;;0.82;0.70;;;23.30;87.80;;;;;;5032224;28;20047;-24
2022/09/12 13:03:51;;;;;;;1.73;0.60;;;23.30;88.00;;;;;;5032539;28;20087;-24
2022/09/12 13:06:25;;;;;;;1.08;0.80;;;23.20;88.00;;;;;;5032528;28;20108;-24
2022/09/12 13:09:21;;;;;;;1.05;0.50;;;23.30;88.40;;;;;;5032280;28;20105;-26
2022/09/12 13:11:57;;;;;;;0.80;0.60;;;23.30;88.40;;;;;;5032405;28;20034;-24
2022/09/12 13:14:52;;;;;;;2.58;0.70;;;23.30;88.50;;;;;;5032550;28;20056;-24